sensor_id;sensor_type;location;lat;lon;timestamp;pressure;altitude;pressure_sealevel;temperature;humidity
35716;BME280;21840;44.920;8.616;2023-04-23T00:01:31;100115.81;;;19.05;42.89
35716;BME280;21840;44.920;8.616;2023-04-23T00:03:59;100106.34;;;18.74;43.94
35716;BME280;21840;44.920;8.616;2023-04-23T00:06:25;100097.69;;;18.87;43.73
35716;BME280;21840;44.920;8.616;2023-04-23T00:08:54;100095.47;;;18.69;44.15
35716;BME280;21840;44.920;8.616;2023-04-23T00:11:21;100095.84;;;18.60;44.66
35716;BME280;21840;44.920;8.616;2023-04-23T00:13:46;100088.69;;;18.60;44.73
35716;BME280;21840;44.920;8.616;2023-04-23T00:16:13;100087.31;;;18.71;44.16
35716;BME280;21840;44.920;8.616;2023-04-23T00:18:40;100082.38;;;18.68;44.16
35716;BME280;21840;44.920;8.616;2023-04-23T00:21:05;100071.03;;;18.81;44.17
35716;BME280;21840;44.920;8.616;2023-04-23T00:23:32;100082.56;;;18.66;44.65
35716;BME280;21840;44.920;8.616;2023-04-23T00:25:58;100078.53;;;18.70;44.66
35716;BME280;21840;44.920;8.616;2023-04-23T00:28:23;100087.41;;;18.78;44.34
35716;BME280;21840;44.920;8.616;2023-04-23T00:30:48;100086.94;;;19.02;43.60
35716;BME280;21840;44.920;8.616;2023-04-23T00:33:14;100081.06;;;18.79;44.26
35716;BME280;21840;44.920;8.616;2023-04-23T00:35:39;100086.09;;;18.73;44.55
35716;BME280;21840;44.920;8.616;2023-04-23T00:38:05;100095.06;;;18.66;44.73
35716;BME280;21840;44.920;8.616;2023-04-23T00:40:30;100089.47;;;18.82;44.57
35716;BME280;21840;44.920;8.616;2023-04-23T00:42:56;100081.50;;;18.89;44.14
35716;BME280;21840;44.920;8.616;2023-04-23T00:45:22;100080.00;;;18.45;44.91
35716;BME280;21840;44.920;8.616;2023-04-23T00:47:47;100078.69;;;18.62;44.40
35716;BME280;21840;44.920;8.616;2023-04-23T00:50:13;100082.97;;;18.63;44.34
35716;BME280;21840;44.920;8.616;2023-04-23T00:52:39;100078.84;;;18.89;43.82
35716;BME280;21840;44.920;8.616;2023-04-23T00:55:05;100084.63;;;18.92;43.66
35716;BME280;21840;44.920;8.616;2023-04-23T00:57:31;100092.38;;;18.87;43.13
35716;BME280;21840;44.920;8.616;2023-04-23T00:59:56;100088.44;;;18.55;42.84
35716;BME280;21840;44.920;8.616;2023-04-23T01:02:23;100086.84;;;18.61;42.90
35716;BME280;21840;44.920;8.616;2023-04-23T01:04:50;100077.06;;;18.68;42.43
35716;BME280;21840;44.920;8.616;2023-04-23T01:07:16;100079.41;;;18.78;42.30
35716;BME280;21840;44.920;8.616;2023-04-23T01:09:42;100093.19;;;18.88;41.94
35716;BME280;21840;44.920;8.616;2023-04-23T01:12:07;100092.78;;;18.91;42.62
35716;BME280;21840;44.920;8.616;2023-04-23T01:14:35;100078.94;;;19.02;42.46
35716;BME280;21840;44.920;8.616;2023-04-23T01:17:01;100085.28;;;19.01;42.82
35716;BME280;21840;44.920;8.616;2023-04-23T01:19:27;100077.34;;;19.08;42.82
35716;BME280;21840;44.920;8.616;2023-04-23T01:21:53;100091.47;;;19.08;42.39
35716;BME280;21840;44.920;8.616;2023-04-23T01:24:18;100084.16;;;18.82;42.57
35716;BME280;21840;44.920;8.616;2023-04-23T01:26:44;100077.28;;;19.01;43.00
35716;BME280;21840;44.920;8.616;2023-04-23T01:29:09;100075.25;;;19.03;42.82
35716;BME280;21840;44.920;8.616;2023-04-23T01:31:35;100068.72;;;19.06;42.95
35716;BME280;21840;44.920;8.616;2023-04-23T01:34:01;100072.06;;;18.80;43.66
35716;BME280;21840;44.920;8.616;2023-04-23T01:36:26;100073.59;;;18.39;45.07
35716;BME280;21840;44.920;8.616;2023-04-23T01:38:52;100075.44;;;18.39;45.82
35716;BME280;21840;44.920;8.616;2023-04-23T01:41:17;100072.09;;;18.30;45.67
35716;BME280;21840;44.920;8.616;2023-04-23T01:43:44;100073.47;;;18.47;45.26
35716;BME280;21840;44.920;8.616;2023-04-23T01:46:10;100079.59;;;18.48;44.83
35716;BME280;21840;44.920;8.616;2023-04-23T01:48:36;100068.72;;;18.43;45.16
35716;BME280;21840;44.920;8.616;2023-04-23T01:51:01;100072.97;;;18.65;44.38
35716;BME280;21840;44.920;8.616;2023-04-23T01:53:27;100074.59;;;18.66;44.17
35716;BME280;21840;44.920;8.616;2023-04-23T01:55:52;100069.88;;;18.33;45.03
35716;BME280;21840;44.920;8.616;2023-04-23T01:58:18;100072.72;;;18.60;44.53
35716;BME280;21840;44.920;8.616;2023-04-23T02:00:44;100066.78;;;18.58;44.80
35716;BME280;21840;44.920;8.616;2023-04-23T02:03:09;100068.78;;;18.78;44.41
35716;BME280;21840;44.920;8.616;2023-04-23T02:05:35;100074.56;;;18.88;43.97
35716;BME280;21840;44.920;8.616;2023-04-23T02:08:01;100069.97;;;18.75;44.30
35716;BME280;21840;44.920;8.616;2023-04-23T02:10:26;100069.19;;;18.81;44.41
35716;BME280;21840;44.920;8.616;2023-04-23T02:12:52;100067.25;;;18.68;44.97
35716;BME280;21840;44.920;8.616;2023-04-23T02:15:17;100072.28;;;18.28;46.01
35716;BME280;21840;44.920;8.616;2023-04-23T02:17:44;100061.13;;;18.68;44.75
35716;BME280;21840;44.920;8.616;2023-04-23T02:20:09;100065.41;;;18.69;45.14
35716;BME280;21840;44.920;8.616;2023-04-23T02:22:36;100072.31;;;18.85;44.76
35716;BME280;21840;44.920;8.616;2023-04-23T02:25:02;100060.63;;;18.58;45.08
35716;BME280;21840;44.920;8.616;2023-04-23T02:27:27;100063.63;;;18.76;44.79
35716;BME280;21840;44.920;8.616;2023-04-23T02:29:53;100062.81;;;18.75;44.96
35716;BME280;21840;44.920;8.616;2023-04-23T02:32:18;100063.56;;;18.69;45.20
35716;BME280;21840;44.920;8.616;2023-04-23T02:34:44;100068.69;;;18.71;45.00
35716;BME280;21840;44.920;8.616;2023-04-23T02:37:10;100062.75;;;18.69;44.90
35716;BME280;21840;44.920;8.616;2023-04-23T02:39:36;100064.75;;;18.60;45.17
35716;BME280;21840;44.920;8.616;2023-04-23T02:42:03;100067.44;;;18.39;45.54
35716;BME280;21840;44.920;8.616;2023-04-23T02:44:28;100063.81;;;18.46;45.30
35716;BME280;21840;44.920;8.616;2023-04-23T02:46:53;100073.91;;;18.29;46.25
35716;BME280;21840;44.920;8.616;2023-04-23T02:49:20;100073.47;;;18.47;46.12
35716;BME280;21840;44.920;8.616;2023-04-23T02:51:46;100064.28;;;18.50;46.29
35716;BME280;21840;44.920;8.616;2023-04-23T02:54:12;100062.13;;;17.89;46.85
35716;BME280;21840;44.920;8.616;2023-04-23T02:56:37;100059.84;;;18.07;46.60
35716;BME280;21840;44.920;8.616;2023-04-23T02:59:04;100052.75;;;18.15;46.33
35716;BME280;21840;44.920;8.616;2023-04-23T03:01:30;100055.41;;;18.15;46.23
35716;BME280;21840;44.920;8.616;2023-04-23T03:03:56;100053.16;;;17.90;46.81
35716;BME280;21840;44.920;8.616;2023-04-23T03:06:21;100057.47;;;18.19;46.42
35716;BME280;21840;44.920;8.616;2023-04-23T03:08:46;100051.44;;;17.82;47.02
35716;BME280;21840;44.920;8.616;2023-04-23T03:11:13;100061.31;;;18.10;46.66
35716;BME280;21840;44.920;8.616;2023-04-23T03:13:38;100044.84;;;17.78;47.46
35716;BME280;21840;44.920;8.616;2023-04-23T03:16:04;100052.84;;;18.00;47.26
35716;BME280;21840;44.920;8.616;2023-04-23T03:18:29;100059.44;;;17.67;48.05
35716;BME280;21840;44.920;8.616;2023-04-23T03:20:55;100065.22;;;17.56;48.34
35716;BME280;21840;44.920;8.616;2023-04-23T03:23:21;100058.53;;;17.60;48.31
35716;BME280;21840;44.920;8.616;2023-04-23T03:25:47;100058.88;;;17.36;49.44
35716;BME280;21840;44.920;8.616;2023-04-23T03:28:12;100056.75;;;17.82;48.27
35716;BME280;21840;44.920;8.616;2023-04-23T03:30:38;100052.59;;;17.95;47.93
35716;BME280;21840;44.920;8.616;2023-04-23T03:33:03;100056.06;;;17.95;47.63
35716;BME280;21840;44.920;8.616;2023-04-23T03:35:29;100051.56;;;17.96;47.29
35716;BME280;21840;44.920;8.616;2023-04-23T03:37:57;100045.69;;;17.64;48.35
35716;BME280;21840;44.920;8.616;2023-04-23T03:40:23;100050.31;;;17.77;48.38
35716;BME280;21840;44.920;8.616;2023-04-23T03:42:52;100060.16;;;17.98;47.83
35716;BME280;21840;44.920;8.616;2023-04-23T03:45:25;100052.59;;;17.95;47.88
35716;BME280;21840;44.920;8.616;2023-04-23T03:47:50;100050.44;;;18.05;47.71
35716;BME280;21840;44.920;8.616;2023-04-23T03:50:16;100052.41;;;17.60;48.60
35716;BME280;21840;44.920;8.616;2023-04-23T03:52:45;100056.00;;;17.74;48.26
35716;BME280;21840;44.920;8.616;2023-04-23T03:55:20;100055.38;;;17.72;48.36
35716;BME280;21840;44.920;8.616;2023-04-23T03:57:46;100052.38;;;17.75;48.33
35716;BME280;21840;44.920;8.616;2023-04-23T04:00:18;100055.59;;;17.70;48.58
35716;BME280;21840;44.920;8.616;2023-04-23T04:02:43;100060.75;;;17.78;48.61
35716;BME280;21840;44.920;8.616;2023-04-23T04:05:09;100061.00;;;17.62;48.68
35716;BME280;21840;44.920;8.616;2023-04-23T04:07:37;100060.19;;;17.25;48.97
35716;BME280;21840;44.920;8.616;2023-04-23T04:10:03;100069.69;;;17.04;49.37
35716;BME280;21840;44.920;8.616;2023-04-23T04:12:29;100066.88;;;17.21;49.04
35716;BME280;21840;44.920;8.616;2023-04-23T04:14:54;100067.97;;;17.12;49.07
35716;BME280;21840;44.920;8.616;2023-04-23T04:17:20;100064.41;;;17.04;49.50
35716;BME280;21840;44.920;8.616;2023-04-23T04:19:45;100064.84;;;17.23;48.92
35716;BME280;21840;44.920;8.616;2023-04-23T04:22:11;100068.41;;;17.30;48.69
35716;BME280;21840;44.920;8.616;2023-04-23T04:24:36;100055.22;;;17.22;48.64
35716;BME280;21840;44.920;8.616;2023-04-23T04:27:02;100056.63;;;17.18;48.80
35716;BME280;21840;44.920;8.616;2023-04-23T04:29:27;100064.38;;;17.34;48.53
35716;BME280;21840;44.920;8.616;2023-04-23T04:31:53;100053.28;;;17.45;47.98
35716;BME280;21840;44.920;8.616;2023-04-23T04:34:19;100058.72;;;17.37;47.99
35716;BME280;21840;44.920;8.616;2023-04-23T04:36:44;100068.31;;;17.38;48.11
35716;BME280;21840;44.920;8.616;2023-04-23T04:39:10;100060.38;;;17.23;48.72
35716;BME280;21840;44.920;8.616;2023-04-23T04:41:37;100056.91;;;17.44;48.40
35716;BME280;21840;44.920;8.616;2023-04-23T04:44:03;100061.16;;;17.39;48.38
35716;BME280;21840;44.920;8.616;2023-04-23T04:46:31;100061.41;;;17.44;48.69
35716;BME280;21840;44.920;8.616;2023-04-23T04:48:58;100059.28;;;17.54;48.26
35716;BME280;21840;44.920;8.616;2023-04-23T04:51:23;100057.53;;;17.61;47.36
35716;BME280;21840;44.920;8.616;2023-04-23T04:53:48;100063.84;;;17.60;46.03
35716;BME280;21840;44.920;8.616;2023-04-23T04:56:14;100060.63;;;17.65;45.44
35716;BME280;21840;44.920;8.616;2023-04-23T04:58:39;100061.84;;;17.62;45.14
35716;BME280;21840;44.920;8.616;2023-04-23T05:01:04;100059.44;;;17.67;45.05
35716;BME280;21840;44.920;8.616;2023-04-23T05:03:30;100065.81;;;17.73;44.80
35716;BME280;21840;44.920;8.616;2023-04-23T05:05:56;100063.28;;;17.80;45.15
35716;BME280;21840;44.920;8.616;2023-04-23T05:08:23;100064.28;;;17.64;46.20
35716;BME280;21840;44.920;8.616;2023-04-23T05:10:48;100071.63;;;17.62;46.46
35716;BME280;21840;44.920;8.616;2023-04-23T05:13:18;100066.56;;;17.67;46.86
35716;BME280;21840;44.920;8.616;2023-04-23T05:15:44;100067.41;;;17.67;46.97
35716;BME280;21840;44.920;8.616;2023-04-23T05:18:10;100060.81;;;17.63;47.14
35716;BME280;21840;44.920;8.616;2023-04-23T05:20:38;100061.69;;;17.85;46.51
35716;BME280;21840;44.920;8.616;2023-04-23T05:23:03;100066.38;;;17.83;45.15
35716;BME280;21840;44.920;8.616;2023-04-23T05:25:29;100063.88;;;17.82;44.37
35716;BME280;21840;44.920;8.616;2023-04-23T05:27:55;100064.28;;;18.00;44.27
35716;BME280;21840;44.920;8.616;2023-04-23T05:30:20;100074.53;;;18.03;43.89
35716;BME280;21840;44.920;8.616;2023-04-23T05:32:45;100080.84;;;18.02;43.77
35716;BME280;21840;44.920;8.616;2023-04-23T05:35:11;100079.75;;;17.97;43.94
35716;BME280;21840;44.920;8.616;2023-04-23T05:37:36;100080.81;;;18.24;44.63
35716;BME280;21840;44.920;8.616;2023-04-23T05:40:02;100075.19;;;18.33;45.43
35716;BME280;21840;44.920;8.616;2023-04-23T05:42:28;100073.88;;;18.23;46.00
35716;BME280;21840;44.920;8.616;2023-04-23T05:44:54;100081.13;;;18.36;45.73
35716;BME280;21840;44.920;8.616;2023-04-23T05:47:19;100081.81;;;18.44;45.30
35716;BME280;21840;44.920;8.616;2023-04-23T05:49:45;100088.88;;;18.30;45.93
35716;BME280;21840;44.920;8.616;2023-04-23T05:52:10;100082.53;;;18.31;45.93
35716;BME280;21840;44.920;8.616;2023-04-23T05:54:35;100086.06;;;18.39;45.61
35716;BME280;21840;44.920;8.616;2023-04-23T05:57:01;100088.78;;;18.45;44.65
35716;BME280;21840;44.920;8.616;2023-04-23T05:59:27;100088.69;;;18.60;44.13
35716;BME280;21840;44.920;8.616;2023-04-23T06:01:52;100079.38;;;18.49;43.53
35716;BME280;21840;44.920;8.616;2023-04-23T06:04:17;100086.84;;;18.61;43.47
35716;BME280;21840;44.920;8.616;2023-04-23T06:06:43;100088.72;;;18.67;43.14
35716;BME280;21840;44.920;8.616;2023-04-23T06:09:08;100084.53;;;18.79;42.94
35716;BME280;21840;44.920;8.616;2023-04-23T06:11:33;100091.13;;;18.83;42.86
35716;BME280;21840;44.920;8.616;2023-04-23T06:14:00;100089.72;;;18.87;42.86
35716;BME280;21840;44.920;8.616;2023-04-23T06:16:25;100096.38;;;19.05;42.16
35716;BME280;21840;44.920;8.616;2023-04-23T06:18:51;100091.91;;;19.18;42.04
35716;BME280;21840;44.920;8.616;2023-04-23T06:21:16;100090.81;;;19.06;42.39
35716;BME280;21840;44.920;8.616;2023-04-23T06:23:41;100085.28;;;19.01;42.54
35716;BME280;21840;44.920;8.616;2023-04-23T06:26:06;100087.25;;;19.27;42.13
35716;BME280;21840;44.920;8.616;2023-04-23T06:28:32;100088.22;;;19.13;42.39
35716;BME280;21840;44.920;8.616;2023-04-23T06:31:23;100090.59;;;19.01;42.68
35716;BME280;21840;44.920;8.616;2023-04-23T06:33:48;100074.22;;;19.04;42.86
35716;BME280;21840;44.920;8.616;2023-04-23T06:36:13;100074.56;;;19.36;42.43
35716;BME280;21840;44.920;8.616;2023-04-23T06:38:39;100088.38;;;19.53;42.16
35716;BME280;21840;44.920;8.616;2023-04-23T06:41:08;100088.34;;;19.39;42.44
35716;BME280;21840;44.920;8.616;2023-04-23T06:43:33;100087.47;;;19.87;41.50
35716;BME280;21840;44.920;8.616;2023-04-23T06:46:34;100081.91;;;19.75;42.09
35716;BME280;21840;44.920;8.616;2023-04-23T06:48:59;100092.75;;;19.74;42.12
35716;BME280;21840;44.920;8.616;2023-04-23T06:51:25;100083.78;;;19.95;41.79
35716;BME280;21840;44.920;8.616;2023-04-23T06:53:51;100085.44;;;20.16;41.34
35716;BME280;21840;44.920;8.616;2023-04-23T06:56:16;100080.09;;;20.42;40.97
35716;BME280;21840;44.920;8.616;2023-04-23T06:58:41;100082.16;;;20.34;41.28
35716;BME280;21840;44.920;8.616;2023-04-23T07:01:16;100077.03;;;20.19;41.68
35716;BME280;21840;44.920;8.616;2023-04-23T07:03:41;100074.34;;;20.19;42.00
35716;BME280;21840;44.920;8.616;2023-04-23T07:06:09;100070.25;;;20.43;41.35
35716;BME280;21840;44.920;8.616;2023-04-23T07:08:34;100073.75;;;20.50;41.30
35716;BME280;21840;44.920;8.616;2023-04-23T07:11:00;100080.13;;;20.56;41.39
35716;BME280;21840;44.920;8.616;2023-04-23T07:13:25;100074.75;;;20.49;41.44
35716;BME280;21840;44.920;8.616;2023-04-23T07:15:51;100072.31;;;20.61;41.55
35716;BME280;21840;44.920;8.616;2023-04-23T07:18:16;100065.75;;;20.63;41.57
35716;BME280;21840;44.920;8.616;2023-04-23T07:20:41;100059.75;;;20.81;40.89
35716;BME280;21840;44.920;8.616;2023-04-23T07:23:07;100055.16;;;21.08;40.21
35716;BME280;21840;44.920;8.616;2023-04-23T07:25:32;100049.19;;;21.06;39.97
35716;BME280;21840;44.920;8.616;2023-04-23T07:27:57;100049.34;;;21.18;39.37
35716;BME280;21840;44.920;8.616;2023-04-23T07:30:23;100041.84;;;21.02;39.30
35716;BME280;21840;44.920;8.616;2023-04-23T07:32:49;100053.06;;;21.17;39.18
35716;BME280;21840;44.920;8.616;2023-04-23T07:35:14;100049.91;;;21.33;38.57
35716;BME280;21840;44.920;8.616;2023-04-23T07:37:39;100040.91;;;21.66;38.10
35716;BME280;21840;44.920;8.616;2023-04-23T07:40:05;100043.66;;;21.08;37.72
35716;BME280;21840;44.920;8.616;2023-04-23T07:42:32;100038.19;;;21.41;37.89
35716;BME280;21840;44.920;8.616;2023-04-23T07:44:57;100033.31;;;21.63;36.80
35716;BME280;21840;44.920;8.616;2023-04-23T07:47:22;100028.25;;;21.87;36.33
35716;BME280;21840;44.920;8.616;2023-04-23T07:49:47;100032.75;;;22.11;36.11
35716;BME280;21840;44.920;8.616;2023-04-23T07:52:13;100032.91;;;21.91;35.86
35716;BME280;21840;44.920;8.616;2023-04-23T07:54:39;100040.56;;;22.20;35.27
35716;BME280;21840;44.920;8.616;2023-04-23T07:57:05;100036.44;;;22.42;34.83
35716;BME280;21840;44.920;8.616;2023-04-23T07:59:30;100038.25;;;22.67;34.63
35716;BME280;21840;44.920;8.616;2023-04-23T08:01:55;100033.34;;;22.82;33.95
35716;BME280;21840;44.920;8.616;2023-04-23T08:04:20;100038.72;;;22.82;33.22
35716;BME280;21840;44.920;8.616;2023-04-23T08:06:46;100054.34;;;23.03;32.69
35716;BME280;21840;44.920;8.616;2023-04-23T08:09:11;100051.81;;;23.09;31.23
35716;BME280;21840;44.920;8.616;2023-04-23T08:11:36;100045.25;;;23.23;30.71
35716;BME280;21840;44.920;8.616;2023-04-23T08:14:02;100043.91;;;22.77;31.46
35716;BME280;21840;44.920;8.616;2023-04-23T08:16:30;100041.28;;;23.25;30.79
35716;BME280;21840;44.920;8.616;2023-04-23T08:18:55;100054.47;;;23.27;30.24
35716;BME280;21840;44.920;8.616;2023-04-23T08:21:22;100049.88;;;22.97;30.38
35716;BME280;21840;44.920;8.616;2023-04-23T08:23:48;100056.69;;;23.30;30.67
35716;BME280;21840;44.920;8.616;2023-04-23T08:26:13;100060.19;;;23.61;30.40
35716;BME280;21840;44.920;8.616;2023-04-23T08:28:39;100062.63;;;23.81;31.17
35716;BME280;21840;44.920;8.616;2023-04-23T08:31:04;100062.69;;;24.16;30.90
35716;BME280;21840;44.920;8.616;2023-04-23T08:33:29;100051.38;;;24.14;31.30
35716;BME280;21840;44.920;8.616;2023-04-23T08:35:55;100053.00;;;24.15;32.20
35716;BME280;21840;44.920;8.616;2023-04-23T08:38:20;100058.84;;;24.12;32.74
35716;BME280;21840;44.920;8.616;2023-04-23T08:40:45;100057.06;;;24.06;32.67
35716;BME280;21840;44.920;8.616;2023-04-23T08:43:14;100049.53;;;24.26;32.27
35716;BME280;21840;44.920;8.616;2023-04-23T08:45:40;100040.78;;;24.19;32.39
35716;BME280;21840;44.920;8.616;2023-04-23T08:48:08;100043.56;;;24.24;32.55
35716;BME280;21840;44.920;8.616;2023-04-23T08:50:33;100037.25;;;24.30;32.71
35716;BME280;21840;44.920;8.616;2023-04-23T08:53:01;100034.81;;;24.41;32.71
35716;BME280;21840;44.920;8.616;2023-04-23T08:55:28;100031.31;;;24.28;32.89
35716;BME280;21840;44.920;8.616;2023-04-23T08:57:56;100025.59;;;24.37;32.42
35716;BME280;21840;44.920;8.616;2023-04-23T09:00:22;100031.81;;;24.49;32.62
35716;BME280;21840;44.920;8.616;2023-04-23T09:02:48;100030.75;;;24.26;32.49
35716;BME280;21840;44.920;8.616;2023-04-23T09:05:13;100024.53;;;24.26;32.81
35716;BME280;21840;44.920;8.616;2023-04-23T09:07:39;100029.81;;;24.44;32.40
35716;BME280;21840;44.920;8.616;2023-04-23T09:10:05;100027.31;;;23.96;33.06
35716;BME280;21840;44.920;8.616;2023-04-23T09:12:31;100025.47;;;24.08;33.28
35716;BME280;21840;44.920;8.616;2023-04-23T09:14:57;100031.28;;;23.81;33.77
35716;BME280;21840;44.920;8.616;2023-04-23T09:17:22;100029.63;;;23.80;34.28
35716;BME280;21840;44.920;8.616;2023-04-23T09:19:52;100022.69;;;24.15;33.99
35716;BME280;21840;44.920;8.616;2023-04-23T09:22:37;100015.09;;;24.23;33.71
35716;BME280;21840;44.920;8.616;2023-04-23T09:25:02;100012.75;;;24.39;33.34
35716;BME280;21840;44.920;8.616;2023-04-23T09:27:29;100016.25;;;24.27;32.86
35716;BME280;21840;44.920;8.616;2023-04-23T09:29:55;100014.19;;;24.41;32.48
35716;BME280;21840;44.920;8.616;2023-04-23T09:32:21;100009.63;;;24.06;33.71
35716;BME280;21840;44.920;8.616;2023-04-23T09:34:55;100011.72;;;24.04;33.76
35716;BME280;21840;44.920;8.616;2023-04-23T09:37:23;100013.81;;;24.14;33.93
35716;BME280;21840;44.920;8.616;2023-04-23T09:39:49;100006.59;;;24.26;33.63
35716;BME280;21840;44.920;8.616;2023-04-23T09:42:17;100010.06;;;24.39;33.44
35716;BME280;21840;44.920;8.616;2023-04-23T09:44:42;100013.81;;;24.02;34.06
35716;BME280;21840;44.920;8.616;2023-04-23T09:47:08;100013.38;;;24.52;33.43
35716;BME280;21840;44.920;8.616;2023-04-23T09:49:46;100010.28;;;23.90;33.57
35716;BME280;21840;44.920;8.616;2023-04-23T09:52:12;100001.22;;;24.26;32.75
35716;BME280;21840;44.920;8.616;2023-04-23T09:54:37;100003.78;;;24.21;33.15
35716;BME280;21840;44.920;8.616;2023-04-23T09:57:03;99996.63;;;24.39;33.10
35716;BME280;21840;44.920;8.616;2023-04-23T09:59:32;99992.69;;;24.41;33.27
35716;BME280;21840;44.920;8.616;2023-04-23T10:02:00;99991.16;;;24.69;32.65
35716;BME280;21840;44.920;8.616;2023-04-23T10:04:26;99989.78;;;24.54;32.76
35716;BME280;21840;44.920;8.616;2023-04-23T10:06:53;99991.00;;;24.87;31.94
35716;BME280;21840;44.920;8.616;2023-04-23T10:09:19;99975.09;;;24.86;31.66
35716;BME280;21840;44.920;8.616;2023-04-23T10:11:49;99979.38;;;24.98;31.59
35716;BME280;21840;44.920;8.616;2023-04-23T10:14:15;99982.63;;;24.72;32.33
35716;BME280;21840;44.920;8.616;2023-04-23T10:16:41;99977.38;;;25.06;32.31
35716;BME280;21840;44.920;8.616;2023-04-23T10:19:08;99969.19;;;24.84;32.24
35716;BME280;21840;44.920;8.616;2023-04-23T10:21:33;99971.78;;;25.07;32.07
35716;BME280;21840;44.920;8.616;2023-04-23T10:23:59;99970.91;;;24.90;32.45
35716;BME280;21840;44.920;8.616;2023-04-23T10:26:25;99968.00;;;25.20;32.09
35716;BME280;21840;44.920;8.616;2023-04-23T10:28:52;99964.09;;;24.59;32.53
35716;BME280;21840;44.920;8.616;2023-04-23T10:31:18;99961.25;;;25.17;31.96
35716;BME280;21840;44.920;8.616;2023-04-23T10:33:43;99957.78;;;25.34;31.71
35716;BME280;21840;44.920;8.616;2023-04-23T10:36:09;99953.16;;;25.46;31.50
35716;BME280;21840;44.920;8.616;2023-04-23T10:38:35;99940.13;;;25.72;31.11
35716;BME280;21840;44.920;8.616;2023-04-23T10:41:00;99931.78;;;25.73;30.88
35716;BME280;21840;44.920;8.616;2023-04-23T10:43:26;99929.03;;;25.85;30.73
35716;BME280;21840;44.920;8.616;2023-04-23T10:45:52;99931.88;;;25.95;30.65
35716;BME280;21840;44.920;8.616;2023-04-23T10:48:18;99932.66;;;26.13;30.30
35716;BME280;21840;44.920;8.616;2023-04-23T10:50:44;99932.50;;;26.19;30.13
35716;BME280;21840;44.920;8.616;2023-04-23T10:53:20;99929.94;;;25.74;30.54
35716;BME280;21840;44.920;8.616;2023-04-23T10:55:46;99925.75;;;25.83;30.56
35716;BME280;21840;44.920;8.616;2023-04-23T10:58:11;99920.75;;;25.87;30.55
35716;BME280;21840;44.920;8.616;2023-04-23T11:03:06;99914.78;;;26.01;30.95
35716;BME280;21840;44.920;8.616;2023-04-23T11:05:51;99915.78;;;26.17;30.81
35716;BME280;21840;44.920;8.616;2023-04-23T11:08:16;99909.91;;;26.42;30.44
35716;BME280;21840;44.920;8.616;2023-04-23T11:10:54;99908.31;;;26.90;29.75
35716;BME280;21840;44.920;8.616;2023-04-23T11:13:21;99906.72;;;26.89;29.62
35716;BME280;21840;44.920;8.616;2023-04-23T11:15:47;99914.53;;;26.91;29.66
35716;BME280;21840;44.920;8.616;2023-04-23T11:18:12;99905.03;;;26.83;29.62
35716;BME280;21840;44.920;8.616;2023-04-23T11:20:37;99904.25;;;27.42;28.78
35716;BME280;21840;44.920;8.616;2023-04-23T11:23:03;99900.09;;;27.29;28.97
35716;BME280;21840;44.920;8.616;2023-04-23T11:25:30;99903.59;;;27.62;28.78
35716;BME280;21840;44.920;8.616;2023-04-23T11:27:55;99906.94;;;27.80;28.51
35716;BME280;21840;44.920;8.616;2023-04-23T11:30:24;99893.22;;;28.34;27.82
35716;BME280;21840;44.920;8.616;2023-04-23T11:32:50;99896.19;;;28.32;27.83
35716;BME280;21840;44.920;8.616;2023-04-23T11:35:16;99882.50;;;28.49;27.78
35716;BME280;21840;44.920;8.616;2023-04-23T11:37:42;99875.00;;;28.67;27.43
35716;BME280;21840;44.920;8.616;2023-04-23T11:40:09;99871.25;;;27.67;28.37
35716;BME280;21840;44.920;8.616;2023-04-23T11:45:20;99880.06;;;27.90;28.13
35716;BME280;21840;44.920;8.616;2023-04-23T11:47:46;99875.25;;;28.02;27.97
35716;BME280;21840;44.920;8.616;2023-04-23T11:50:15;99867.75;;;28.09;27.55
35716;BME280;21840;44.920;8.616;2023-04-23T11:52:42;99862.03;;;28.58;27.04
35716;BME280;21840;44.920;8.616;2023-04-23T11:55:07;99862.44;;;28.35;27.09
35716;BME280;21840;44.920;8.616;2023-04-23T11:57:36;99857.56;;;28.32;27.05
35716;BME280;21840;44.920;8.616;2023-04-23T12:02:37;99854.84;;;28.27;26.99
35716;BME280;21840;44.920;8.616;2023-04-23T12:05:06;99847.72;;;28.63;26.22
35716;BME280;21840;44.920;8.616;2023-04-23T12:07:33;99844.50;;;28.76;26.15
35716;BME280;21840;44.920;8.616;2023-04-23T12:09:58;99857.47;;;28.95;25.79
35716;BME280;21840;44.920;8.616;2023-04-23T12:12:36;99838.88;;;29.09;25.58
35716;BME280;21840;44.920;8.616;2023-04-23T12:15:04;99850.16;;;28.80;25.86
35716;BME280;21840;44.920;8.616;2023-04-23T12:17:31;99844.75;;;28.75;25.92
35716;BME280;21840;44.920;8.616;2023-04-23T12:19:56;99833.16;;;28.95;25.55
35716;BME280;21840;44.920;8.616;2023-04-23T12:22:25;99845.84;;;28.89;25.57
35716;BME280;21840;44.920;8.616;2023-04-23T12:24:51;99838.78;;;28.68;25.45
35716;BME280;21840;44.920;8.616;2023-04-23T12:27:18;99834.81;;;29.06;25.30
35716;BME280;21840;44.920;8.616;2023-04-23T12:29:44;99833.91;;;28.54;25.50
35716;BME280;21840;44.920;8.616;2023-04-23T12:32:11;99842.00;;;28.49;25.82
35716;BME280;21840;44.920;8.616;2023-04-23T12:34:37;99846.41;;;28.81;25.79
35716;BME280;21840;44.920;8.616;2023-04-23T12:37:16;99847.41;;;28.49;25.35
35716;BME280;21840;44.920;8.616;2023-04-23T12:39:42;99849.59;;;28.73;25.62
35716;BME280;21840;44.920;8.616;2023-04-23T12:42:07;99852.88;;;29.00;25.21
35716;BME280;21840;44.920;8.616;2023-04-23T12:44:34;99833.38;;;28.78;25.08
35716;BME280;21840;44.920;8.616;2023-04-23T12:47:01;99841.53;;;29.03;24.88
35716;BME280;21840;44.920;8.616;2023-04-23T12:49:30;99830.72;;;28.83;24.93
35716;BME280;21840;44.920;8.616;2023-04-23T12:51:56;99832.78;;;28.45;25.41
35716;BME280;21840;44.920;8.616;2023-04-23T12:54:23;99831.22;;;28.59;25.22
35716;BME280;21840;44.920;8.616;2023-04-23T12:56:48;99815.81;;;28.70;25.03